createdAt,value
2023-08-07T00:00:01.153Z,9.10
2023-08-07T00:01:01.165Z,8.77
2023-08-07T00:02:01.504Z,8.97
2023-08-07T00:03:01.604Z,7.93
2023-08-07T00:04:01.236Z,8.17
2023-08-07T00:05:01.500Z,8.00
2023-08-07T00:06:01.555Z,9.50
2023-08-07T00:07:01.407Z,11.57
2023-08-07T00:08:01.458Z,14.47
2023-08-07T00:09:01.204Z,12.83
2023-08-07T00:10:01.726Z,15.77
2023-08-07T00:11:10.881Z,20.93
2023-08-07T00:12:01.167Z,16.87
2023-08-07T00:13:01.081Z,15.57
2023-08-07T00:14:01.533Z,23.33
2023-08-07T00:15:01.510Z,27.27
2023-08-07T00:16:01.478Z,29.27
2023-08-07T00:17:01.133Z,32.33
2023-08-07T00:18:01.556Z,31.17
2023-08-07T00:19:02.935Z,28.10
2023-08-07T00:20:01.223Z,27.53
2023-08-07T00:21:01.496Z,27.57
2023-08-07T00:22:01.154Z,25.43
2023-08-07T00:23:01.452Z,25.33
2023-08-07T00:24:01.229Z,23.07
2023-08-07T00:25:01.610Z,21.03
2023-08-07T00:26:01.504Z,19.63
2023-08-07T00:27:01.292Z,16.87
2023-08-07T00:28:01.146Z,20.23
2023-08-07T00:29:01.484Z,19.17
2023-08-07T00:30:01.143Z,17.73
2023-08-07T00:31:01.182Z,16.13
2023-08-07T00:32:01.269Z,17.80
2023-08-07T00:33:01.199Z,18.30
2023-08-07T00:34:01.507Z,20.33
2023-08-07T00:35:01.513Z,20.07
2023-08-07T00:36:01.106Z,19.17
2023-08-07T00:37:01.502Z,13.70
2023-08-07T00:38:01.145Z,14.83
2023-08-07T00:39:01.538Z,14.27
2023-08-07T00:40:01.511Z,12.33
2023-08-07T00:41:01.467Z,10.60
2023-08-07T00:42:01.506Z,10.53
2023-08-07T00:43:01.349Z,10.17
2023-08-07T00:44:01.610Z,10.60
2023-08-07T00:45:01.158Z,10.87
2023-08-07T00:46:02.241Z,11.27
2023-08-07T00:47:01.989Z,12.00
2023-08-07T00:48:01.228Z,10.90
2023-08-07T00:49:02.271Z,11.10
2023-08-07T00:50:03.769Z,10.53
2023-08-07T00:51:02.536Z,10.43
2023-08-07T00:52:01.648Z,10.43
2023-08-07T00:53:01.604Z,11.17
2023-08-07T00:54:03.847Z,11.13
2023-08-07T00:55:01.826Z,9.73
2023-08-07T00:56:01.550Z,10.10
2023-08-07T00:57:10.156Z,9.03
2023-08-07T00:58:01.552Z,10.40
2023-08-07T00:59:01.784Z,9.00
2023-08-07T01:00:02.075Z,10.17
2023-08-07T01:01:01.760Z,12.07
2023-08-07T01:02:01.531Z,11.50
2023-08-07T01:03:02.448Z,10.37
2023-08-07T01:04:01.166Z,9.07
2023-08-07T01:05:02.082Z,9.53
2023-08-07T01:06:01.932Z,11.27
2023-08-07T01:07:01.555Z,10.50
2023-08-07T01:08:01.899Z,10.10
2023-08-07T01:09:01.549Z,10.17
2023-08-07T01:10:01.575Z,11.00
2023-08-07T01:11:15.855Z,12.73
2023-08-07T01:12:10.642Z,16.70
2023-08-07T01:13:08.798Z,16.90
2023-08-07T01:14:08.922Z,17.53
2023-08-07T01:15:09.479Z,15.93
2023-08-07T01:16:10.408Z,14.53
2023-08-07T01:17:06.310Z,14.77
2023-08-07T01:18:03.110Z,15.30
2023-08-07T01:19:03.051Z,13.67
2023-08-07T01:20:02.128Z,12.27
2023-08-07T01:21:03.533Z,10.43
2023-08-07T01:22:05.501Z,10.00
2023-08-07T01:23:01.152Z,11.73
2023-08-07T01:24:01.112Z,11.00
2023-08-07T01:25:01.452Z,10.93
2023-08-07T01:26:01.178Z,9.30
2023-08-07T01:27:13.109Z,11.43
2023-08-07T01:28:11.388Z,11.70
2023-08-07T01:29:06.625Z,12.43
2023-08-07T01:30:17.456Z,11.30
2023-08-07T01:31:06.407Z,10.67
2023-08-07T01:32:08.129Z,10.10
2023-08-07T01:33:09.665Z,11.93
2023-08-07T01:34:05.335Z,12.57
2023-08-07T01:35:02.990Z,20.07
2023-08-07T01:36:04.647Z,17.73
2023-08-07T01:37:03.472Z,18.53
2023-08-07T01:38:03.520Z,21.13
2023-08-07T01:39:02.322Z,20.97
2023-08-07T01:40:02.918Z,22.50
2023-08-07T01:41:02.003Z,21.77
2023-08-07T01:42:02.770Z,17.77
2023-08-07T01:43:01.456Z,18.63
2023-08-07T01:44:01.719Z,17.07
2023-08-07T01:45:01.478Z,15.83
2023-08-07T01:46:02.112Z,13.17
2023-08-07T01:47:01.168Z,12.77
2023-08-07T01:48:01.915Z,13.37
2023-08-07T01:49:01.375Z,13.40
2023-08-07T01:50:01.290Z,11.37
2023-08-07T01:51:01.119Z,11.10
2023-08-07T01:52:01.109Z,12.43
2023-08-07T01:53:01.610Z,10.63
2023-08-07T01:54:01.411Z,11.23
2023-08-07T01:55:01.096Z,11.27
2023-08-07T01:56:01.509Z,11.80
2023-08-07T01:57:01.087Z,11.30
2023-08-07T01:58:01.529Z,12.43
2023-08-07T01:59:01.109Z,12.27
2023-08-07T02:00:01.584Z,10.13
2023-08-07T02:01:01.145Z,10.90
2023-08-07T02:02:01.506Z,13.47
2023-08-07T02:03:01.301Z,11.67
2023-08-07T02:04:01.157Z,11.57
2023-08-07T02:05:01.117Z,10.13
2023-08-07T02:06:01.096Z,12.37
2023-08-07T02:07:01.499Z,11.40
2023-08-07T02:08:01.141Z,12.60
2023-08-07T02:09:01.109Z,10.77
2023-08-07T02:10:01.512Z,12.87
2023-08-07T02:11:01.392Z,10.43
2023-08-07T02:12:01.089Z,11.63
2023-08-07T02:13:01.155Z,12.97
2023-08-07T02:14:01.520Z,12.30
2023-08-07T02:15:01.526Z,11.87
2023-08-07T02:16:01.130Z,12.10
2023-08-07T02:17:01.495Z,11.33
2023-08-07T02:18:01.225Z,12.90
2023-08-07T02:19:01.149Z,11.33
2023-08-07T02:20:01.138Z,12.37
2023-08-07T02:21:01.139Z,11.40
2023-08-07T02:22:01.873Z,12.20
2023-08-07T02:23:01.181Z,11.93
2023-08-07T02:24:01.468Z,12.97
2023-08-07T02:25:01.176Z,12.33
2023-08-07T02:26:01.575Z,12.53
2023-08-07T02:27:01.544Z,12.20
2023-08-07T02:28:01.478Z,11.30
2023-08-07T02:29:01.082Z,12.43
2023-08-07T02:30:01.427Z,13.70
2023-08-07T02:31:01.627Z,13.13
2023-08-07T02:32:02.391Z,13.87
2023-08-07T02:33:01.377Z,12.23
2023-08-07T02:34:01.164Z,13.30
2023-08-07T02:35:01.133Z,13.17
2023-08-07T02:36:01.099Z,12.13
2023-08-07T02:37:01.429Z,13.37
2023-08-07T02:38:01.543Z,12.47
2023-08-07T02:39:01.493Z,11.37
2023-08-07T02:40:01.508Z,13.03
2023-08-07T02:41:01.469Z,13.37
2023-08-07T02:42:01.167Z,12.60
2023-08-07T02:43:01.098Z,13.03
2023-08-07T02:44:01.686Z,14.77
2023-08-07T02:45:01.478Z,13.73
2023-08-07T02:46:01.248Z,13.60
2023-08-07T02:47:01.108Z,12.60
2023-08-07T02:48:01.915Z,13.27
2023-08-07T02:49:01.633Z,12.73
2023-08-07T02:50:01.141Z,14.57
2023-08-07T02:51:01.408Z,12.73
2023-08-07T02:52:01.143Z,13.17
2023-08-07T02:53:02.197Z,14.03
2023-08-07T02:54:01.628Z,14.80
2023-08-07T02:55:01.634Z,15.90
2023-08-07T02:56:01.150Z,14.73
2023-08-07T02:57:01.150Z,12.37
2023-08-07T02:58:01.518Z,15.50
2023-08-07T02:59:01.149Z,13.17
2023-08-07T03:00:01.827Z,12.63
2023-08-07T03:01:04.436Z,13.43
2023-08-07T03:02:01.418Z,13.63
2023-08-07T03:03:01.675Z,13.67
2023-08-07T03:04:01.504Z,13.67
2023-08-07T03:05:01.488Z,14.03
2023-08-07T03:06:01.896Z,12.57
2023-08-07T03:07:01.462Z,14.03
2023-08-07T03:08:01.523Z,14.07
2023-08-07T03:09:01.666Z,12.73
2023-08-07T03:10:01.162Z,12.00
2023-08-07T03:11:01.130Z,14.97
2023-08-07T03:12:01.413Z,13.67
2023-08-07T03:13:01.464Z,13.80
2023-08-07T03:14:01.471Z,13.53
2023-08-07T03:15:01.468Z,14.40
2023-08-07T03:16:02.950Z,12.83
2023-08-07T03:17:01.255Z,12.87
2023-08-07T03:18:01.551Z,12.87
2023-08-07T03:19:01.141Z,14.37
2023-08-07T03:20:01.522Z,12.37
2023-08-07T03:21:01.721Z,13.70
2023-08-07T03:22:01.509Z,12.70
2023-08-07T03:23:01.152Z,13.23
2023-08-07T03:24:01.084Z,12.33
2023-08-07T03:25:01.284Z,13.60
2023-08-07T03:26:17.636Z,12.27
2023-08-07T03:27:01.481Z,14.70
2023-08-07T03:28:01.753Z,13.07
2023-08-07T03:29:01.142Z,13.63
2023-08-07T03:30:01.109Z,13.60
2023-08-07T03:31:01.518Z,11.57
2023-08-07T03:32:01.144Z,12.93
2023-08-07T03:33:01.149Z,14.23
2023-08-07T03:34:01.445Z,12.60
2023-08-07T03:35:01.141Z,14.17
2023-08-07T03:36:01.413Z,13.37
2023-08-07T03:37:01.506Z,13.30
2023-08-07T03:38:01.152Z,13.97
2023-08-07T03:39:01.601Z,13.97
2023-08-07T03:40:01.138Z,12.73
2023-08-07T03:41:01.493Z,11.67
2023-08-07T03:42:01.528Z,13.03
2023-08-07T03:43:01.185Z,13.17
2023-08-07T03:44:01.123Z,13.27
2023-08-07T03:45:01.117Z,14.23
2023-08-07T03:46:03.516Z,13.00
2023-08-07T03:47:01.457Z,14.20
2023-08-07T03:48:01.498Z,14.70
2023-08-07T03:49:01.484Z,13.87
2023-08-07T03:50:01.732Z,13.27
2023-08-07T03:51:03.059Z,13.67
2023-08-07T03:52:01.153Z,13.47
2023-08-07T03:53:01.574Z,11.70
2023-08-07T03:54:01.524Z,12.67
2023-08-07T03:55:01.911Z,13.77
2023-08-07T03:56:01.500Z,13.23
2023-08-07T03:57:01.500Z,13.63
2023-08-07T03:58:01.492Z,13.87
2023-08-07T03:59:01.077Z,13.40
2023-08-07T04:00:01.483Z,13.93
2023-08-07T04:01:01.838Z,14.63
2023-08-07T04:02:01.078Z,15.13
2023-08-07T04:03:01.181Z,14.87
2023-08-07T04:04:01.547Z,16.77
2023-08-07T04:05:01.601Z,17.63
2023-08-07T04:06:01.473Z,14.77
2023-08-07T04:07:01.420Z,16.40
2023-08-07T04:08:01.151Z,16.50
2023-08-07T04:09:01.498Z,16.17
2023-08-07T04:10:01.153Z,15.10
2023-08-07T04:11:02.346Z,18.80
2023-08-07T04:12:01.578Z,18.97
2023-08-07T04:13:01.451Z,19.50
2023-08-07T04:14:01.144Z,17.53
2023-08-07T04:15:01.448Z,15.97
2023-08-07T04:16:01.456Z,17.33
2023-08-07T04:17:01.112Z,16.27
2023-08-07T04:18:01.121Z,16.87
2023-08-07T04:19:01.127Z,16.43
2023-08-07T04:20:01.186Z,13.27
2023-08-07T04:21:01.580Z,13.10
2023-08-07T04:22:01.451Z,15.20
2023-08-07T04:23:01.908Z,13.10
2023-08-07T04:24:01.514Z,13.20
2023-08-07T04:25:03.042Z,14.23
2023-08-07T04:26:01.208Z,13.10
2023-08-07T04:27:01.464Z,13.17
2023-08-07T04:28:01.174Z,13.47
2023-08-07T04:29:01.078Z,15.17
2023-08-07T04:30:01.498Z,13.37
2023-08-07T04:31:01.188Z,14.57
2023-08-07T04:32:01.122Z,13.87
2023-08-07T04:33:01.515Z,13.20
2023-08-07T04:34:01.318Z,14.07
2023-08-07T04:35:01.452Z,12.67
2023-08-07T04:36:01.188Z,13.90
2023-08-07T04:37:01.496Z,13.40
2023-08-07T04:38:01.980Z,13.87
2023-08-07T04:39:01.508Z,14.10
2023-08-07T04:40:01.081Z,13.10
2023-08-07T04:41:01.173Z,14.03
2023-08-07T04:42:01.443Z,12.03
2023-08-07T04:43:01.420Z,15.50
2023-08-07T04:44:01.154Z,13.87
2023-08-07T04:45:01.751Z,13.83
2023-08-07T04:46:01.102Z,13.57
2023-08-07T04:47:01.513Z,14.43
2023-08-07T04:48:01.161Z,14.13
2023-08-07T04:49:01.472Z,15.40
2023-08-07T04:50:01.180Z,14.30
2023-08-07T04:51:01.153Z,13.03
2023-08-07T04:52:12.866Z,14.53
2023-08-07T04:53:01.129Z,13.90
2023-08-07T04:54:01.486Z,14.57
2023-08-07T04:55:01.534Z,13.83
2023-08-07T04:56:03.652Z,14.43
2023-08-07T04:57:01.138Z,13.53
2023-08-07T04:58:01.423Z,14.20
2023-08-07T04:59:02.032Z,14.70
2023-08-07T05:00:01.136Z,13.40
2023-08-07T05:01:01.146Z,14.30
2023-08-07T05:02:01.133Z,13.73
2023-08-07T05:03:01.385Z,12.77
2023-08-07T05:04:01.572Z,14.20
2023-08-07T05:05:01.625Z,13.57
2023-08-07T05:06:01.785Z,13.13
2023-08-07T05:07:01.374Z,13.27
2023-08-07T05:08:01.490Z,14.60
2023-08-07T05:09:01.468Z,13.30
2023-08-07T05:10:02.628Z,15.20
2023-08-07T05:11:01.142Z,13.57
2023-08-07T05:12:01.194Z,14.73
2023-08-07T05:13:01.155Z,13.73
2023-08-07T05:14:01.449Z,15.77
2023-08-07T05:15:01.582Z,14.80
2023-08-07T05:16:01.461Z,16.07
2023-08-07T05:17:01.149Z,16.67
2023-08-07T05:18:01.818Z,15.33
2023-08-07T05:19:01.080Z,14.77
2023-08-07T05:20:01.514Z,14.80
2023-08-07T05:21:01.456Z,14.13
2023-08-07T05:22:01.158Z,13.80
2023-08-07T05:23:01.445Z,13.37
2023-08-07T05:24:01.102Z,14.37
2023-08-07T05:25:01.444Z,14.43
2023-08-07T05:26:01.473Z,15.60
2023-08-07T05:27:01.160Z,13.97
2023-08-07T05:28:01.483Z,13.50
2023-08-07T05:29:01.622Z,14.63
2023-08-07T05:30:01.520Z,13.07
2023-08-07T05:31:01.181Z,14.13
2023-08-07T05:32:01.137Z,13.77
2023-08-07T05:33:01.496Z,14.77
2023-08-07T05:34:01.102Z,13.83
2023-08-07T05:35:01.156Z,14.57
2023-08-07T05:36:01.086Z,13.23
2023-08-07T05:37:02.610Z,12.97
2023-08-07T05:38:01.094Z,12.07
2023-08-07T05:39:01.518Z,13.17
2023-08-07T05:40:02.710Z,14.10
2023-08-07T05:41:01.453Z,13.77
2023-08-07T05:42:02.083Z,14.13
2023-08-07T05:43:01.458Z,13.40
2023-08-07T05:44:01.402Z,14.10
2023-08-07T05:45:01.334Z,14.50
2023-08-07T05:46:01.190Z,15.23
2023-08-07T05:47:01.469Z,15.00
2023-08-07T05:48:01.150Z,15.70
2023-08-07T05:49:01.174Z,14.37
2023-08-07T05:50:01.843Z,14.17
2023-08-07T05:51:01.694Z,15.07
2023-08-07T05:52:01.483Z,14.80
2023-08-07T05:53:01.105Z,13.97
2023-08-07T05:54:01.088Z,14.97
2023-08-07T05:55:01.436Z,15.50
2023-08-07T05:56:01.521Z,14.50
2023-08-07T05:57:01.565Z,13.50
2023-08-07T05:58:01.461Z,14.17
2023-08-07T05:59:01.440Z,13.90
2023-08-07T06:00:01.598Z,13.70
2023-08-07T06:01:01.503Z,14.27
2023-08-07T06:02:02.890Z,14.57
2023-08-07T06:03:01.615Z,14.93
2023-08-07T06:04:01.511Z,13.83
2023-08-07T06:05:01.442Z,14.27
2023-08-07T06:06:01.082Z,14.27
2023-08-07T06:07:01.147Z,14.17
2023-08-07T06:08:01.512Z,14.13
2023-08-07T06:09:01.775Z,15.37
2023-08-07T06:10:01.119Z,13.07
2023-08-07T06:11:01.435Z,13.50
2023-08-07T06:12:01.160Z,13.73
2023-08-07T06:13:01.554Z,13.43
2023-08-07T06:14:01.921Z,13.47
2023-08-07T06:15:01.494Z,14.63
2023-08-07T06:16:01.121Z,14.03
2023-08-07T06:17:01.088Z,14.50
2023-08-07T06:18:01.548Z,15.47
2023-08-07T06:19:01.116Z,13.67
2023-08-07T06:20:01.195Z,13.33
2023-08-07T06:21:01.268Z,13.67
2023-08-07T06:22:01.657Z,13.10
2023-08-07T06:23:01.446Z,12.37
2023-08-07T06:24:01.629Z,14.60
2023-08-07T06:25:01.126Z,14.30
2023-08-07T06:26:01.427Z,14.47
2023-08-07T06:27:02.358Z,14.20
2023-08-07T06:28:01.100Z,14.27
2023-08-07T06:29:01.138Z,15.13
2023-08-07T06:30:01.206Z,14.60
2023-08-07T06:31:02.015Z,15.10
2023-08-07T06:32:01.556Z,13.73
2023-08-07T06:33:01.119Z,15.00
2023-08-07T06:34:01.158Z,14.37
2023-08-07T06:35:01.403Z,13.77
2023-08-07T06:36:02.133Z,14.83
2023-08-07T06:37:01.093Z,14.57
2023-08-07T06:38:01.469Z,13.33
2023-08-07T06:39:01.150Z,16.17
2023-08-07T06:40:01.135Z,15.03
2023-08-07T06:41:01.537Z,13.23
2023-08-07T06:42:01.274Z,12.57
2023-08-07T06:43:01.506Z,13.03
2023-08-07T06:44:01.090Z,14.10
2023-08-07T06:45:01.533Z,14.17
2023-08-07T06:46:01.756Z,14.93
2023-08-07T06:47:01.625Z,14.37
2023-08-07T06:48:01.117Z,13.57
2023-08-07T06:49:01.558Z,14.80
2023-08-07T06:50:01.514Z,12.87
2023-08-07T06:51:01.443Z,13.60
2023-08-07T06:52:01.229Z,14.13
2023-08-07T06:53:01.079Z,16.10
2023-08-07T06:54:01.145Z,14.70
2023-08-07T06:55:01.486Z,14.93
2023-08-07T06:56:01.481Z,15.73
2023-08-07T06:57:01.310Z,12.90
2023-08-07T06:58:01.449Z,14.57
2023-08-07T06:59:01.145Z,14.57
2023-08-07T07:00:01.447Z,13.00
2023-08-07T07:01:01.157Z,14.10
2023-08-07T07:02:01.140Z,14.67
2023-08-07T07:03:01.957Z,13.27
2023-08-07T07:04:01.170Z,14.77
2023-08-07T07:05:01.095Z,14.27
2023-08-07T07:06:01.115Z,13.50
2023-08-07T07:07:01.435Z,14.60
2023-08-07T07:08:01.835Z,13.23
2023-08-07T07:09:01.088Z,14.57
2023-08-07T07:10:01.768Z,14.03
2023-08-07T07:11:01.139Z,13.23
2023-08-07T07:12:01.088Z,13.50
2023-08-07T07:13:01.880Z,14.23
2023-08-07T07:14:01.568Z,12.73
2023-08-07T07:15:01.405Z,14.43
2023-08-07T07:16:02.264Z,14.63
2023-08-07T07:17:01.526Z,14.17
2023-08-07T07:18:01.305Z,14.23
2023-08-07T07:19:01.886Z,13.57
2023-08-07T07:20:01.501Z,15.47
2023-08-07T07:21:01.169Z,15.23
2023-08-07T07:22:01.096Z,14.50
2023-08-07T07:23:01.405Z,13.37
2023-08-07T07:24:02.570Z,13.23
2023-08-07T07:25:01.681Z,13.50
2023-08-07T07:26:01.487Z,13.27
2023-08-07T07:27:01.542Z,13.63
2023-08-07T07:28:01.461Z,13.53
2023-08-07T07:29:01.587Z,15.90
2023-08-07T07:30:01.947Z,14.77
2023-08-07T07:31:01.629Z,14.23
2023-08-07T07:32:01.654Z,14.90
2023-08-07T07:33:01.208Z,14.67
2023-08-07T07:34:01.723Z,14.27
2023-08-07T07:35:01.505Z,14.40
2023-08-07T07:36:01.152Z,14.10
2023-08-07T07:37:01.469Z,14.07
2023-08-07T07:38:01.453Z,14.33
2023-08-07T07:39:01.451Z,14.40
2023-08-07T07:40:01.178Z,14.47
2023-08-07T07:41:01.393Z,14.10
2023-08-07T07:42:01.182Z,13.10
2023-08-07T07:43:01.510Z,14.77
2023-08-07T07:44:01.089Z,14.73
2023-08-07T07:45:01.099Z,15.30
2023-08-07T07:46:01.474Z,13.67
2023-08-07T07:47:01.230Z,14.57
2023-08-07T07:48:01.248Z,14.03
2023-08-07T07:49:01.461Z,12.97
2023-08-07T07:50:06.840Z,14.53
2023-08-07T07:51:02.471Z,16.03
2023-08-07T07:52:01.690Z,14.93
2023-08-07T07:53:01.474Z,16.60
2023-08-07T07:54:14.304Z,14.07
2023-08-07T07:55:01.765Z,14.67
2023-08-07T07:56:01.432Z,14.77
2023-08-07T07:57:01.171Z,13.60
2023-08-07T07:58:01.099Z,15.60
2023-08-07T07:59:01.147Z,16.30
2023-08-07T08:00:01.409Z,16.07
2023-08-07T08:01:01.446Z,15.03
2023-08-07T08:02:01.108Z,14.73
2023-08-07T08:03:01.443Z,15.30
2023-08-07T08:04:01.487Z,16.80
2023-08-07T08:05:01.145Z,16.47
2023-08-07T08:06:01.565Z,15.87
2023-08-07T08:07:01.143Z,15.70
2023-08-07T08:08:01.603Z,14.63
2023-08-07T08:09:01.325Z,14.60
2023-08-07T08:10:01.574Z,14.07
2023-08-07T08:11:03.845Z,15.17
2023-08-07T08:12:01.148Z,14.90
2023-08-07T08:13:02.127Z,14.57
2023-08-07T08:14:01.778Z,15.57
2023-08-07T08:15:01.555Z,13.87
2023-08-07T08:16:01.676Z,14.87
2023-08-07T08:17:01.487Z,15.37
2023-08-07T08:18:01.468Z,14.03
2023-08-07T08:19:01.090Z,14.53
2023-08-07T08:20:01.449Z,13.90
2023-08-07T08:21:01.469Z,14.97
2023-08-07T08:22:01.364Z,15.53
2023-08-07T08:23:01.507Z,15.40
2023-08-07T08:24:01.527Z,14.80
2023-08-07T08:25:01.877Z,13.93
2023-08-07T08:26:01.750Z,14.07
2023-08-07T08:27:01.462Z,14.47
2023-08-07T08:28:01.583Z,15.07
2023-08-07T08:29:01.145Z,13.03
2023-08-07T08:30:02.197Z,14.93
2023-08-07T08:31:01.166Z,14.70
2023-08-07T08:32:01.455Z,15.97
2023-08-07T08:33:01.642Z,14.73
2023-08-07T08:34:01.531Z,13.60
2023-08-07T08:35:01.509Z,16.00
2023-08-07T08:36:01.521Z,13.80
2023-08-07T08:37:01.156Z,15.33
2023-08-07T08:38:01.194Z,13.73
2023-08-07T08:39:02.182Z,14.30
2023-08-07T08:40:01.460Z,14.33
2023-08-07T08:41:03.088Z,14.50
2023-08-07T08:42:02.134Z,14.57
2023-08-07T08:43:01.743Z,14.30
2023-08-07T08:44:04.508Z,16.60
2023-08-07T08:45:02.443Z,14.93
2023-08-07T08:46:04.157Z,15.37
2023-08-07T08:47:02.116Z,14.17
2023-08-07T08:48:03.194Z,14.17
2023-08-07T08:49:03.428Z,15.37
2023-08-07T08:50:04.771Z,15.33
2023-08-07T08:51:03.362Z,15.13
2023-08-07T08:52:02.305Z,13.77
2023-08-07T08:53:04.161Z,15.13
2023-08-07T08:54:03.109Z,14.40
2023-08-07T08:55:02.334Z,12.80
2023-08-07T08:56:01.984Z,14.53
2023-08-07T08:57:01.884Z,13.97
2023-08-07T08:58:02.210Z,14.50
2023-08-07T08:59:02.144Z,13.67
2023-08-07T09:00:02.173Z,15.70
2023-08-07T09:01:02.247Z,14.57
2023-08-07T09:02:01.838Z,15.57
2023-08-07T09:03:01.838Z,15.17
2023-08-07T09:04:02.004Z,16.00
2023-08-07T09:05:01.460Z,16.33
2023-08-07T09:06:01.570Z,13.83
2023-08-07T09:07:02.082Z,14.67
2023-08-07T09:08:02.553Z,14.00
2023-08-07T09:09:03.016Z,14.83
2023-08-07T09:10:02.796Z,15.53
2023-08-07T09:11:02.482Z,16.17
2023-08-07T09:12:02.893Z,14.77
2023-08-07T09:13:02.571Z,14.40
2023-08-07T09:14:03.138Z,14.83
2023-08-07T09:15:03.410Z,14.27
2023-08-07T09:16:03.028Z,14.20
2023-08-07T09:17:01.668Z,13.93
2023-08-07T09:18:03.938Z,14.67
2023-08-07T09:19:04.338Z,15.40
2023-08-07T09:20:02.172Z,15.47
2023-08-07T09:21:01.746Z,15.13
2023-08-07T09:22:01.380Z,14.77
2023-08-07T09:23:01.109Z,15.83
2023-08-07T09:24:01.545Z,15.90
2023-08-07T09:25:01.154Z,15.23
2023-08-07T09:26:02.616Z,16.37
2023-08-07T09:27:01.676Z,14.50
2023-08-07T09:28:02.540Z,15.20
2023-08-07T09:29:02.159Z,16.00
2023-08-07T09:30:02.142Z,16.97
2023-08-07T09:31:01.365Z,14.60
2023-08-07T09:32:07.467Z,17.27
2023-08-07T09:33:01.883Z,15.33
2023-08-07T09:34:03.752Z,14.23
2023-08-07T09:35:02.611Z,15.20
2023-08-07T09:36:02.341Z,14.57
2023-08-07T09:37:02.299Z,16.33
2023-08-07T09:38:02.006Z,15.37
2023-08-07T09:39:01.828Z,14.00
2023-08-07T09:40:02.033Z,14.40
2023-08-07T09:41:04.239Z,14.53
2023-08-07T09:42:02.125Z,16.43
2023-08-07T09:43:01.909Z,14.57
2023-08-07T09:44:07.415Z,15.00
2023-08-07T09:45:01.582Z,14.33
2023-08-07T09:46:02.860Z,14.87
2023-08-07T09:47:12.025Z,15.40
2023-08-07T09:48:02.966Z,14.67
2023-08-07T09:49:01.092Z,15.07
2023-08-07T09:50:01.452Z,15.70
2023-08-07T09:51:01.891Z,15.30
2023-08-07T09:52:06.711Z,15.83
2023-08-07T09:53:01.321Z,15.40
2023-08-07T09:54:01.443Z,15.63
2023-08-07T09:55:01.462Z,14.93
2023-08-07T09:56:02.187Z,15.47
2023-08-07T09:57:02.580Z,15.80
2023-08-07T09:58:01.884Z,14.83
2023-08-07T09:59:01.202Z,14.33
2023-08-07T10:00:01.552Z,14.03
2023-08-07T10:01:02.972Z,14.43
2023-08-07T10:02:02.856Z,15.53
2023-08-07T10:03:02.419Z,14.40
2023-08-07T10:04:01.894Z,13.50
2023-08-07T10:05:01.863Z,14.40
2023-08-07T10:06:02.166Z,13.67
2023-08-07T10:07:02.228Z,15.60
2023-08-07T10:08:02.479Z,13.53
2023-08-07T10:09:02.386Z,14.00
2023-08-07T10:10:02.762Z,13.83
2023-08-07T10:11:02.534Z,14.37
2023-08-07T10:12:02.779Z,15.47
2023-08-07T10:13:01.269Z,13.93
2023-08-07T10:14:02.286Z,14.50
2023-08-07T10:15:02.146Z,15.83
2023-08-07T10:16:01.532Z,14.40
2023-08-07T10:17:02.439Z,15.23
2023-08-07T10:18:01.684Z,15.97
2023-08-07T10:19:01.107Z,15.13
2023-08-07T10:20:01.570Z,14.27
2023-08-07T10:21:02.733Z,15.73
2023-08-07T10:22:03.047Z,14.77
2023-08-07T10:23:07.343Z,14.30
2023-08-07T10:24:04.580Z,15.47
2023-08-07T10:25:02.640Z,15.27
2023-08-07T10:26:02.911Z,16.60
2023-08-07T10:27:02.124Z,13.57
2023-08-07T10:28:03.761Z,16.03
2023-08-07T10:29:04.597Z,14.27
2023-08-07T10:30:04.635Z,14.33
2023-08-07T10:31:02.137Z,15.30
2023-08-07T10:32:02.909Z,14.40
2023-08-07T10:33:02.828Z,15.23
2023-08-07T10:34:02.240Z,15.40
2023-08-07T10:35:04.198Z,16.60
2023-08-07T10:36:09.102Z,13.70
2023-08-07T10:37:01.662Z,15.53
2023-08-07T10:38:07.266Z,13.47
2023-08-07T10:39:07.477Z,15.67
2023-08-07T10:40:04.097Z,16.23
2023-08-07T10:41:05.824Z,14.73
2023-08-07T10:42:01.582Z,15.70
2023-08-07T10:43:12.789Z,15.33
2023-08-07T10:44:03.416Z,14.50
2023-08-07T10:45:02.045Z,15.10
2023-08-07T10:46:05.990Z,15.97
2023-08-07T10:47:01.565Z,15.13
2023-08-07T10:48:02.941Z,14.80
2023-08-07T10:49:01.957Z,16.57
2023-08-07T10:50:01.419Z,15.20
2023-08-07T10:51:04.272Z,14.40
2023-08-07T10:52:04.071Z,15.80
2023-08-07T10:53:02.761Z,14.17
2023-08-07T10:54:02.413Z,15.17
2023-08-07T10:55:01.527Z,14.30
2023-08-07T10:56:02.955Z,15.10
2023-08-07T10:57:01.534Z,14.70
2023-08-07T10:58:01.106Z,15.33
2023-08-07T10:59:09.546Z,14.60
2023-08-07T11:00:03.890Z,17.23
2023-08-07T11:01:15.930Z,14.83
2023-08-07T11:02:01.418Z,13.53
2023-08-07T11:03:02.781Z,16.90
2023-08-07T11:04:10.962Z,15.43
2023-08-07T11:05:02.197Z,15.30
2023-08-07T11:06:01.240Z,15.73
2023-08-07T11:07:01.347Z,14.93
2023-08-07T11:08:01.513Z,15.17
2023-08-07T11:09:02.892Z,15.23
2023-08-07T11:10:01.338Z,18.23
2023-08-07T11:11:05.417Z,14.00
2023-08-07T11:12:01.460Z,15.93
2023-08-07T11:13:01.196Z,14.50
2023-08-07T11:14:01.086Z,16.03
2023-08-07T11:15:01.445Z,13.77
2023-08-07T11:16:02.777Z,15.77
2023-08-07T11:17:01.662Z,15.03
2023-08-07T11:18:01.668Z,13.83
2023-08-07T11:19:01.997Z,14.63
2023-08-07T11:20:02.185Z,15.13
2023-08-07T11:21:02.080Z,15.17
2023-08-07T11:22:01.276Z,14.97
2023-08-07T11:23:01.086Z,14.83
2023-08-07T11:24:02.569Z,14.70
2023-08-07T11:25:02.060Z,15.60
2023-08-07T11:26:01.533Z,15.40
2023-08-07T11:27:03.315Z,15.90
2023-08-07T11:28:01.101Z,13.27
2023-08-07T11:29:01.493Z,15.10
2023-08-07T11:30:01.152Z,15.90
2023-08-07T11:31:01.510Z,13.97
2023-08-07T11:32:02.371Z,15.77
2023-08-07T11:33:02.624Z,13.87
2023-08-07T11:34:01.576Z,13.47
2023-08-07T11:35:01.256Z,15.60
2023-08-07T11:36:01.556Z,15.57
2023-08-07T11:37:01.535Z,15.07
2023-08-07T11:38:01.483Z,15.47
2023-08-07T11:39:01.438Z,14.53
2023-08-07T11:40:02.583Z,15.20
2023-08-07T11:41:02.815Z,15.33
2023-08-07T11:42:01.095Z,15.97
2023-08-07T11:43:01.790Z,16.87
2023-08-07T11:44:01.179Z,16.37
2023-08-07T11:45:02.760Z,14.97
2023-08-07T11:46:03.698Z,14.93
2023-08-07T11:47:02.391Z,16.17
2023-08-07T11:48:02.165Z,14.40
2023-08-07T11:49:01.191Z,15.03
2023-08-07T11:50:02.374Z,13.83
2023-08-07T11:51:03.150Z,14.63
2023-08-07T11:52:01.140Z,15.27
2023-08-07T11:53:01.524Z,14.87
2023-08-07T11:54:03.208Z,16.27
2023-08-07T11:55:02.802Z,15.33
2023-08-07T11:56:02.813Z,15.77
2023-08-07T11:57:01.480Z,13.73
2023-08-07T11:58:03.910Z,15.77
2023-08-07T11:59:03.102Z,15.87
2023-08-07T12:00:01.432Z,15.40
2023-08-07T12:01:04.718Z,15.90
2023-08-07T12:02:09.336Z,15.00
2023-08-07T12:03:01.153Z,15.23
2023-08-07T12:04:09.990Z,15.83
2023-08-07T12:05:01.758Z,16.80
2023-08-07T12:06:03.765Z,13.93
2023-08-07T12:07:01.779Z,13.60
2023-08-07T12:08:01.169Z,15.73
2023-08-07T12:09:02.285Z,14.77
2023-08-07T12:10:03.191Z,15.10
2023-08-07T12:11:03.131Z,15.30
2023-08-07T12:12:02.742Z,14.83
2023-08-07T12:13:01.513Z,14.50
2023-08-07T12:14:01.140Z,14.20
2023-08-07T12:15:01.418Z,14.83
2023-08-07T12:16:02.220Z,16.00
2023-08-07T12:17:02.343Z,14.40
2023-08-07T12:18:01.850Z,15.13
2023-08-07T12:19:01.853Z,15.50
2023-08-07T12:20:04.814Z,15.90
2023-08-07T12:21:03.474Z,15.23
2023-08-07T12:22:01.426Z,15.70
2023-08-07T12:23:01.118Z,14.77
2023-08-07T12:24:01.482Z,14.27
2023-08-07T12:25:01.093Z,13.50
2023-08-07T12:26:01.824Z,13.83
2023-08-07T12:27:01.301Z,13.63
2023-08-07T12:28:01.221Z,15.50
2023-08-07T12:29:01.111Z,15.33
2023-08-07T12:30:01.109Z,14.87
2023-08-07T12:31:01.390Z,15.80
2023-08-07T12:32:01.451Z,13.80
2023-08-07T12:33:01.183Z,14.77
2023-08-07T12:34:35.538Z,15.17
2023-08-07T12:36:02.131Z,15.50
2023-08-07T12:37:01.070Z,14.83
2023-08-07T12:38:01.424Z,15.37
2023-08-07T12:39:01.161Z,15.23
2023-08-07T12:41:01.574Z,15.50
2023-08-07T12:43:01.496Z,14.27
2023-08-07T12:44:01.136Z,13.93
2023-08-07T12:45:01.447Z,16.00
2023-08-07T12:47:01.536Z,14.47
2023-08-07T12:48:01.451Z,14.80
2023-08-07T12:49:01.323Z,14.73
2023-08-07T12:50:01.112Z,15.30
2023-08-07T12:51:01.561Z,14.43
2023-08-07T12:52:02.883Z,15.63
2023-08-07T12:53:01.096Z,14.03
2023-08-07T12:54:01.482Z,16.33
2023-08-07T12:55:01.476Z,14.40
2023-08-07T12:56:01.171Z,15.30
2023-08-07T12:57:01.418Z,14.30